Weather reports worldwide

Advertisment
Cartagena, Spain (8434): temperature & dewpoint: 23.09.2020 02:00:00 - 29.09.2020 02:00:00 (CEST)Cartagena, Spain (8434): wind speed & gusts: 23.09.2020 02:00:00 - 29.09.2020 02:00:00 (CEST)Cartagena, Spain (8434): wind direction: 23.09.2020 02:00:00 - 29.09.2020 02:00:00 (CEST)Cartagena, Spain (8434): precipitation: 23.09.2020 02:00:00 - 29.09.2020 02:00:00 (CEST)
Date & Time tt [°C] td [°C] ff [km/h] ff [kn] fx [km/h] fx [kn] dd rr [mm]
29.09.2020 02:00:00 18,6 14,1 2 1 10 5 N -
29.09.2020 01:00:00 - - - - - - - -
29.09.2020 00:00:00 20,0 15,6 1 0 6 4 NNW 0,0
28.09.2020 23:00:00 20,7 16,1 0 0 6 3 NW 0,0
28.09.2020 22:00:00 21,3 16,7 0 0 4 2 ENE 0,0
28.09.2020 21:00:00 - - - - - - - -
28.09.2020 20:00:00 22,3 16,3 5 3 14 8 S -
28.09.2020 19:00:00 - - - - - - - -
28.09.2020 18:00:00 - - - - - - - -
28.09.2020 17:00:00 23,3 16,1 13 7 24 13 S 0,0
28.09.2020 16:00:00 - - - - - - - -
28.09.2020 15:00:00 - - - - - - - -
28.09.2020 14:00:00 24,1 12,4 10 5 20 11 S -
28.09.2020 13:00:00 - - - - - - - -
28.09.2020 12:00:00 - - - - - - - -
28.09.2020 11:00:00 23,6 9,2 3 2 11 6 N 0,0
28.09.2020 10:00:00 22,4 8,9 6 3 14 8 N 0,0
28.09.2020 09:00:00 19,1 9,9 7 4 14 7 NW 0,0
28.09.2020 08:00:00 16,8 11,1 3 2 10 5 N -
28.09.2020 07:00:00 - - - - - - - -
28.09.2020 06:00:00 - - - - - - - -
28.09.2020 05:00:00 - - - - - - - -
28.09.2020 04:00:00 18,4 13,7 4 2 9 5 NNE 0,0
28.09.2020 03:00:00 - - - - - - - -
28.09.2020 02:00:00 19,2 14,2 0 0 4 2 N -
28.09.2020 01:00:00 19,6 14,0 1 1 6 4 WNW 0,0
28.09.2020 00:00:00 20,6 14,9 3 2 6 3 WNW 0,0
27.09.2020 23:00:00 21,8 15,9 2 1 9 5 SSW 0,0
27.09.2020 22:00:00 - - - - - - - -
27.09.2020 21:00:00 22,1 15,7 4 2 13 7 SSE 0,0
27.09.2020 20:00:00 22,4 14,5 4 2 18 10 S -
27.09.2020 19:00:00 - - - - - - - -
27.09.2020 18:00:00 - - - - - - - -
27.09.2020 17:00:00 23,9 12,9 10 5 36 19 SE 0,0
27.09.2020 16:00:00 25,5 11,3 10 5 29 16 SE 0,0
27.09.2020 15:00:00 - - - - - - - -
27.09.2020 14:00:00 27,1 10,8 12 7 28 15 N -
27.09.2020 13:00:00 25,8 10,4 14 7 29 16 N 0,0
27.09.2020 12:00:00 25,2 11,0 11 6 25 14 N 0,0
27.09.2020 11:00:00 - - - - - - - -
27.09.2020 10:00:00 - - - - - - - -
27.09.2020 09:00:00 21,2 9,1 3 2 16 9 NW 0,0
27.09.2020 08:00:00 20,0 8,4 6 3 14 8 NW -
27.09.2020 07:00:00 - - - - - - - -
27.09.2020 06:00:00 17,5 12,2 0 0 4 2 N 0,0
27.09.2020 05:00:00 - - - - - - - -
27.09.2020 04:00:00 18,3 12,3 0 0 4 2 W 0,0
27.09.2020 03:00:00 - - - - - - - -
27.09.2020 02:00:00 20,7 14,1 2 1 19 11 NW -
27.09.2020 01:00:00 21,3 14,7 5 3 17 9 SSW 0,0
27.09.2020 00:00:00 21,4 14,8 8 4 28 15 SSW 0,0
26.09.2020 23:00:00 - - - - - - - -
26.09.2020 22:00:00 21,7 12,0 11 6 31 17 SSW 0,0
26.09.2020 21:00:00 21,8 11,8 11 6 31 17 SW 0,0
26.09.2020 20:00:00 21,5 10,7 12 7 33 18 SSW -
26.09.2020 19:00:00 22,0 9,9 14 7 29 16 SSW 0,0
26.09.2020 18:00:00 - - - - - - - -
26.09.2020 17:00:00 22,5 7,9 14 7 27 14 SSW 0,0
26.09.2020 16:00:00 23,3 5,7 12 6 26 14 SSW 0,0
26.09.2020 15:00:00 - - - - - - - -
26.09.2020 14:00:00 24,8 6,1 9 5 24 13 N -
26.09.2020 13:00:00 23,9 6,2 10 5 25 13 N 0,0
26.09.2020 12:00:00 22,1 5,1 7 4 24 13 NNE 0,0
26.09.2020 11:00:00 - - - - - - - -
26.09.2020 10:00:00 - - - - - - - -
26.09.2020 09:00:00 20,0 5,3 7 4 25 13 N 0,0
26.09.2020 08:00:00 19,0 4,4 9 5 23 12 N -
26.09.2020 07:00:00 19,5 4,8 8 4 22 12 NNW 0,0
26.09.2020 06:00:00 19,7 4,6 6 3 18 10 NNW 0,0
26.09.2020 05:00:00 19,8 4,7 4 2 13 7 NW 0,0
26.09.2020 04:00:00 20,0 4,9 4 2 11 6 NNE 0,0
26.09.2020 03:00:00 20,6 4,6 6 3 22 12 NNW 0,0
26.09.2020 02:00:00 21,3 4,8 6 4 21 11 NNW -
26.09.2020 01:00:00 21,9 4,9 5 3 20 11 NNW 0,0
26.09.2020 00:00:00 22,8 4,8 10 5 30 16 N 0,0
25.09.2020 23:00:00 - - - - - - - -
25.09.2020 22:00:00 - - - - - - - -
25.09.2020 21:00:00 24,1 11,8 6 3 15 8 N 0,0
25.09.2020 20:00:00 24,3 15,2 5 3 14 8 SSW -
25.09.2020 19:00:00 - - - - - - - -
25.09.2020 18:00:00 - - - - - - - -
25.09.2020 17:00:00 - - - - - - - -
25.09.2020 16:00:00 - - - - - - - -
25.09.2020 15:00:00 - - - - - - - -
25.09.2020 14:00:00 29,5 10,6 6 4 18 10 NNW -
25.09.2020 13:00:00 - - - - - - - -
25.09.2020 12:00:00 - - - - - - - -
25.09.2020 11:00:00 28,1 9,9 9 5 25 14 WNW 0,0
25.09.2020 10:00:00 26,9 14,3 4 2 11 6 ENE 0,0
25.09.2020 09:00:00 - - - - - - - -
25.09.2020 08:00:00 23,8 13,1 1 1 10 5 NE -
25.09.2020 07:00:00 25,0 13,2 4 2 16 8 NE 0,0
25.09.2020 06:00:00 - - - - - - - -
25.09.2020 05:00:00 24,9 13,8 1 0 9 5 NNW 0,0
25.09.2020 04:00:00 - - - - - - - -
25.09.2020 03:00:00 - - - - - - - -
25.09.2020 02:00:00 25,4 18,6 1 0 7 4 W -
25.09.2020 01:00:00 25,7 18,4 4 2 20 11 ESE 0,0
25.09.2020 00:00:00 25,8 19,0 6 3 25 14 SSE 0,0
24.09.2020 23:00:00 - - - - - - - -
24.09.2020 22:00:00 - - - - - - - -
24.09.2020 21:00:00 - - - - - - - -
24.09.2020 20:00:00 26,8 16,4 8 4 22 12 SW -
24.09.2020 19:00:00 - - - - - - - -
24.09.2020 18:00:00 25,2 18,6 12 7 27 15 SW 0,0
24.09.2020 17:00:00 25,4 19,1 14 8 37 20 SSW 0,0
24.09.2020 16:00:00 - - - - - - - -
24.09.2020 15:00:00 24,8 20,5 11 6 22 12 SSW 0,0
24.09.2020 14:00:00 26,8 18,4 7 4 17 9 S -
24.09.2020 13:00:00 26,2 19,3 10 6 18 10 S 0,0
24.09.2020 12:00:00 26,0 20,3 5 3 12 7 SSE 0,0
24.09.2020 11:00:00 24,5 20,2 4 2 13 7 S 0,0
24.09.2020 10:00:00 24,4 20,5 4 2 11 6 SSE 0,0
24.09.2020 09:00:00 22,3 14,7 1 1 5 3 SW 0,0
24.09.2020 08:00:00 21,1 13,8 2 1 5 3 NNE -
24.09.2020 07:00:00 21,6 14,0 1 1 4 2 WNW 0,0
24.09.2020 06:00:00 - - - - - - - -
24.09.2020 05:00:00 23,3 14,0 0 0 8 5 NE 0,0
24.09.2020 04:00:00 - - - - - - - -
24.09.2020 03:00:00 23,7 16,0 4 2 8 4 N 0,0
24.09.2020 02:00:00 23,2 17,4 5 3 11 6 NE -
24.09.2020 01:00:00 22,8 18,1 2 1 5 3 NNE 0,0
24.09.2020 00:00:00 - - - - - - - -
23.09.2020 23:00:00 - - - - - - - -
23.09.2020 22:00:00 - - - - - - - -
23.09.2020 21:00:00 23,5 18,6 6 3 16 9 S 0,0
23.09.2020 20:00:00 24,1 18,5 6 3 19 10 SSW -
23.09.2020 19:00:00 24,4 18,8 10 5 35 19 S 0,0
23.09.2020 18:00:00 24,1 17,8 20 11 39 21 S 0,0
23.09.2020 17:00:00 23,8 19,3 21 12 40 22 S 0,0
23.09.2020 16:00:00 24,0 19,5 18 10 32 17 SSW 0,0
23.09.2020 15:00:00 24,7 19,8 13 7 24 13 S 0,0
23.09.2020 14:00:00 25,3 18,5 7 4 15 8 SW -
23.09.2020 13:00:00 24,1 21,0 6 3 19 10 S 0,0
23.09.2020 12:00:00 23,4 20,5 8 4 16 9 S 0,0
23.09.2020 11:00:00 23,4 20,0 7 4 16 8 SSW 0,0
23.09.2020 10:00:00 - - - - - - - -
23.09.2020 09:00:00 21,7 18,3 0 0 13 7 N 0,0
23.09.2020 08:00:00 20,8 18,2 0 0 0 0 N -
23.09.2020 07:00:00 20,1 17,3 0 0 0 0 N 0,0
23.09.2020 06:00:00 20,5 17,5 0 0 0 0 N 0,0
23.09.2020 05:00:00 - - - - - - - -
23.09.2020 04:00:00 21,8 18,8 0 0 8 5 N 0,0
23.09.2020 03:00:00 - - - - - - - -
23.09.2020 02:00:00 22,9 19,3 1 1 12 7 S -

tt = temperature
td = dewpoint
ff = wind speed
fx = gusts
dd = wind direction
rr = precipitation

Next stations